Time;durP1;ratioP1;P1;durP2;ratioP2;P2;SDS_P1;SDS_P2;PMS_P1;PMS_P2;Temp;Humidity;BMP_temperature;BMP_pressure;BME280_temperature;BME280_humidity;BME280_pressure;Samples;Min_cycle;Max_cycle;Signal;HPM_P1;HPM_P2
2023/05/01 00:00:13;;;;;;;8.93;4.57;;;9.30;99.90;;;;;;4941519;28;20118;-64
2023/05/01 00:02:38;;;;;;;9.07;3.90;;;9.20;99.90;;;;;;4970837;28;20051;-64
2023/05/01 00:05:06;;;;;;;8.70;4.63;;;9.20;99.90;;;;;;4956141;28;20061;-64
2023/05/01 00:07:32;;;;;;;10.52;4.78;;;9.30;99.90;;;;;;4954619;28;20307;-64
2023/05/01 00:09:58;;;;;;;10.57;4.57;;;9.20;99.90;;;;;;4949587;28;20038;-64
2023/05/01 00:12:24;;;;;;;7.30;4.40;;;9.20;99.90;;;;;;4956407;28;20035;-64
2023/05/01 00:14:49;;;;;;;10.27;4.50;;;9.20;99.90;;;;;;4952070;28;20425;-64
2023/05/01 00:17:15;;;;;;;9.57;4.50;;;9.20;99.90;;;;;;4950897;28;20051;-64
2023/05/01 00:19:41;;;;;;;8.35;4.20;;;9.20;99.90;;;;;;4952334;28;20058;-64
2023/05/01 00:22:07;;;;;;;7.95;4.47;;;9.20;99.90;;;;;;4951896;28;20472;-64
2023/05/01 00:24:33;;;;;;;9.68;4.30;;;9.10;99.90;;;;;;4968005;28;20047;-64
2023/05/01 00:26:58;;;;;;;7.85;4.70;;;9.10;99.90;;;;;;4951453;28;20086;-64
2023/05/01 00:29:24;;;;;;;8.85;5.00;;;9.10;99.90;;;;;;4954971;28;20519;-64
2023/05/01 00:31:50;;;;;;;11.75;4.72;;;9.10;99.90;;;;;;4938085;28;20157;-64
2023/05/01 00:34:16;;;;;;;8.38;5.30;;;9.10;99.90;;;;;;4945471;28;20047;-64
2023/05/01 00:36:42;;;;;;;10.52;4.90;;;9.10;99.90;;;;;;4940183;28;20682;-64
2023/05/01 00:39:07;;;;;;;8.73;4.35;;;9.10;99.90;;;;;;4956858;28;20127;-64
2023/05/01 00:41:34;;;;;;;9.55;4.55;;;9.10;99.90;;;;;;4945699;28;20050;-64
2023/05/01 00:44:00;;;;;;;10.25;5.38;;;9.10;99.90;;;;;;4942747;28;20045;-64
2023/05/01 00:46:28;;;;;;;8.98;4.88;;;9.00;99.90;;;;;;4930839;28;20409;-64
2023/05/01 00:48:56;;;;;;;9.18;5.25;;;9.10;99.90;;;;;;4960167;28;20053;-64
2023/05/01 00:51:22;;;;;;;5.95;4.40;;;9.00;99.90;;;;;;4958552;28;20041;-64
2023/05/01 00:53:48;;;;;;;11.82;5.10;;;9.00;99.90;;;;;;4957325;28;20046;-64
2023/05/01 00:56:14;;;;;;;10.45;5.68;;;9.00;99.90;;;;;;4953462;28;20050;-64
2023/05/01 00:58:41;;;;;;;11.82;6.45;;;9.00;99.90;;;;;;4958718;28;22021;-64
2023/05/01 01:01:09;;;;;;;10.32;5.75;;;9.00;99.90;;;;;;4956388;28;20054;-64
2023/05/01 01:03:35;;;;;;;9.25;6.25;;;9.00;99.90;;;;;;4956776;28;20073;-64
2023/05/01 01:06:31;;;;;;;15.10;7.18;;;9.00;99.90;;;;;;4963086;28;20042;-64
2023/05/01 01:09:25;;;;;;;12.50;6.45;;;9.00;99.90;;;;;;4966797;28;20074;-64
2023/05/01 01:12:24;;;;;;;12.15;6.40;;;9.00;99.90;;;;;;4957694;28;20042;-64
2023/05/01 01:15:08;;;;;;;17.08;7.22;;;8.90;99.90;;;;;;4945080;28;20125;-64
2023/05/01 01:17:43;;;;;;;9.45;5.88;;;8.90;99.90;;;;;;4958593;28;20061;-64
2023/05/01 01:20:19;;;;;;;12.35;6.47;;;8.90;99.90;;;;;;4962066;28;20050;-64
2023/05/01 01:23:29;;;;;;;9.43;4.93;;;8.90;99.90;;;;;;4957408;28;20360;-64
2023/05/01 01:26:02;;;;;;;10.85;5.10;;;8.90;99.90;;;;;;4963569;28;20058;-64
2023/05/01 01:28:47;;;;;;;10.77;4.68;;;8.90;99.90;;;;;;4941834;28;20061;-64
2023/05/01 01:31:21;;;;;;;13.20;4.57;;;8.90;99.90;;;;;;4955327;28;20068;-64
2023/05/01 01:34:26;;;;;;;9.85;5.13;;;8.90;99.90;;;;;;4951747;28;20046;-64
2023/05/01 01:37:03;;;;;;;10.93;4.82;;;8.80;99.90;;;;;;4921079;28;20062;-64
2023/05/01 01:39:49;;;;;;;12.32;5.10;;;8.80;99.90;;;;;;4947091;28;20050;-64
2023/05/01 01:42:20;;;;;;;10.90;5.57;;;8.80;99.90;;;;;;4944680;28;20053;-64
2023/05/01 01:45:01;;;;;;;12.18;6.05;;;8.80;99.90;;;;;;4938024;28;20117;-64
2023/05/01 01:47:31;;;;;;;12.05;5.85;;;8.80;99.90;;;;;;4942906;28;20149;-64
2023/05/01 01:50:01;;;;;;;10.55;5.85;;;8.80;99.90;;;;;;4943539;28;20055;-64
2023/05/01 01:52:29;;;;;;;11.82;6.82;;;8.80;99.90;;;;;;4934987;28;20046;-64
2023/05/01 01:55:04;;;;;;;9.85;6.07;;;8.80;99.90;;;;;;4949081;28;20070;-64
2023/05/01 01:57:30;;;;;;;11.05;5.72;;;8.70;99.90;;;;;;4943973;28;20046;-64
2023/05/01 01:59:57;;;;;;;11.38;6.53;;;8.70;99.90;;;;;;4943545;28;20054;-64
2023/05/01 02:02:25;;;;;;;8.88;5.75;;;8.70;99.90;;;;;;4931714;28;20042;-64
2023/05/01 02:04:52;;;;;;;11.60;6.32;;;8.70;99.90;;;;;;4951685;28;20039;-64
2023/05/01 02:07:19;;;;;;;10.70;6.03;;;8.70;99.90;;;;;;4946038;28;20189;-64
2023/05/01 02:09:46;;;;;;;13.65;6.10;;;8.70;99.90;;;;;;4948690;28;20038;-64
2023/05/01 02:12:15;;;;;;;9.85;5.78;;;8.70;99.90;;;;;;4944500;28;20050;-64
2023/05/01 02:14:41;;;;;;;12.05;6.15;;;8.70;99.90;;;;;;4947460;28;20058;-64
2023/05/01 02:17:09;;;;;;;15.07;6.32;;;8.60;99.90;;;;;;4951973;28;20062;-64
2023/05/01 02:19:39;;;;;;;13.02;6.18;;;8.60;99.90;;;;;;4948182;28;20600;-64
2023/05/01 02:22:06;;;;;;;11.70;6.30;;;8.70;99.90;;;;;;4959513;28;20448;-64
2023/05/01 02:24:33;;;;;;;12.82;6.28;;;8.60;99.90;;;;;;4926623;28;20066;-64
2023/05/01 02:27:14;;;;;;;11.50;6.65;;;8.60;99.90;;;;;;4945223;28;20053;-64
2023/05/01 02:29:40;;;;;;;11.55;6.72;;;8.60;99.90;;;;;;4933904;28;20050;-64
2023/05/01 02:32:05;;;;;;;9.43;6.10;;;8.60;99.90;;;;;;4929472;28;20800;-65
2023/05/01 02:34:34;;;;;;;14.23;6.93;;;8.60;99.90;;;;;;4945735;28;20090;-65
2023/05/01 02:37:00;;;;;;;12.30;6.63;;;8.60;99.90;;;;;;4943269;28;20042;-65
2023/05/01 02:39:26;;;;;;;17.42;6.57;;;8.60;99.90;;;;;;4945693;28;20051;-65
2023/05/01 02:41:54;;;;;;;10.43;5.70;;;8.60;99.90;;;;;;4935443;28;20046;-65
2023/05/01 02:44:23;;;;;;;11.75;6.50;;;8.60;99.90;;;;;;4949565;28;20886;-65
2023/05/01 02:46:50;;;;;;;11.68;6.72;;;8.50;99.90;;;;;;4946263;28;20097;-65
2023/05/01 02:49:17;;;;;;;11.65;6.78;;;8.50;99.90;;;;;;4948022;28;20042;-65
2023/05/01 02:51:45;;;;;;;15.88;7.55;;;8.50;99.90;;;;;;4949950;28;20052;-65
2023/05/01 02:54:12;;;;;;;8.68;6.05;;;8.50;99.90;;;;;;4943760;28;20050;-65
2023/05/01 02:56:38;;;;;;;11.98;6.00;;;8.50;99.90;;;;;;4948820;28;20062;-65
2023/05/01 02:59:04;;;;;;;11.90;6.43;;;8.50;99.90;;;;;;4932929;28;20050;-65
2023/05/01 03:01:30;;;;;;;13.73;5.57;;;8.50;99.90;;;;;;4947444;28;20046;-65
2023/05/01 03:03:55;;;;;;;10.25;5.78;;;8.40;99.90;;;;;;4921210;28;20157;-65
2023/05/01 03:06:21;;;;;;;13.25;5.95;;;8.40;99.90;;;;;;4948430;28;20057;-65
2023/05/01 03:08:47;;;;;;;10.70;5.65;;;8.50;99.90;;;;;;4938677;28;20054;-65
2023/05/01 03:11:13;;;;;;;12.13;5.68;;;8.40;99.90;;;;;;4946971;28;20556;-65
2023/05/01 03:13:39;;;;;;;9.93;5.45;;;8.40;99.90;;;;;;4949647;28;20042;-65
2023/05/01 03:16:05;;;;;;;11.52;5.40;;;8.40;99.90;;;;;;4937808;28;20042;-65
2023/05/01 03:18:30;;;;;;;9.98;5.82;;;8.40;99.90;;;;;;4937393;28;20045;-65
2023/05/01 03:20:56;;;;;;;12.45;5.90;;;8.40;99.90;;;;;;4927184;28;20062;-65
2023/05/01 03:23:22;;;;;;;11.02;5.68;;;8.40;99.90;;;;;;4937818;28;20048;-66
2023/05/01 03:25:49;;;;;;;13.77;5.47;;;8.40;99.90;;;;;;4947482;28;20057;-66
2023/05/01 03:28:15;;;;;;;11.93;5.68;;;8.40;99.90;;;;;;4936221;28;20258;-65
2023/05/01 03:30:41;;;;;;;7.90;5.50;;;8.40;99.90;;;;;;4952676;28;20811;-65
2023/05/01 03:33:07;;;;;;;10.35;5.82;;;8.30;99.90;;;;;;4952359;28;20042;-65
2023/05/01 03:35:32;;;;;;;11.00;5.45;;;8.30;99.90;;;;;;4951049;28;20053;-65
2023/05/01 03:37:58;;;;;;;15.18;5.63;;;8.30;99.90;;;;;;4937714;28;20081;-65
2023/05/01 03:40:24;;;;;;;10.25;6.05;;;8.30;99.90;;;;;;4933283;28;20053;-65
2023/05/01 03:42:49;;;;;;;9.93;5.00;;;8.30;99.90;;;;;;4946234;28;20046;-65
2023/05/01 03:45:15;;;;;;;10.38;5.57;;;8.20;99.90;;;;;;4966249;28;20077;-65
2023/05/01 03:47:41;;;;;;;12.45;5.95;;;8.20;99.90;;;;;;4944903;28;20061;-65
2023/05/01 03:50:08;;;;;;;8.77;5.00;;;8.20;99.90;;;;;;4936045;28;20046;-65
2023/05/01 03:52:33;;;;;;;11.45;5.78;;;8.20;99.90;;;;;;4935962;28;20169;-65
2023/05/01 03:54:59;;;;;;;14.77;5.80;;;8.10;99.90;;;;;;4946743;28;20043;-65
2023/05/01 03:57:26;;;;;;;11.88;6.57;;;8.10;99.90;;;;;;4931894;28;20046;-65
2023/05/01 03:59:53;;;;;;;7.82;5.07;;;8.10;99.90;;;;;;4935978;28;20096;-65
2023/05/01 04:02:19;;;;;;;14.43;6.03;;;8.10;99.90;;;;;;4940790;28;22982;-65
2023/05/01 04:04:44;;;;;;;9.50;5.70;;;8.10;99.90;;;;;;4924203;28;20052;-65
2023/05/01 04:07:11;;;;;;;10.82;6.18;;;8.10;99.90;;;;;;4945630;28;20519;-65
2023/05/01 04:09:36;;;;;;;13.07;6.13;;;8.10;99.90;;;;;;4943778;28;20050;-65
2023/05/01 04:12:03;;;;;;;14.82;5.90;;;8.00;99.90;;;;;;4935822;28;20054;-65
2023/05/01 04:14:28;;;;;;;11.48;5.95;;;8.00;99.90;;;;;;4930342;28;20572;-65
2023/05/01 04:16:55;;;;;;;8.27;5.38;;;8.00;99.90;;;;;;4948392;28;20058;-65
2023/05/01 04:19:21;;;;;;;12.05;5.78;;;7.90;99.90;;;;;;4938191;28;20066;-65
2023/05/01 04:21:46;;;;;;;13.43;6.05;;;8.00;99.90;;;;;;4931228;28;20129;-65
2023/05/01 04:24:12;;;;;;;10.25;6.05;;;7.90;99.90;;;;;;4935845;28;20129;-65
2023/05/01 04:26:38;;;;;;;12.00;5.70;;;7.90;99.90;;;;;;4921632;28;20054;-65
2023/05/01 04:29:04;;;;;;;12.65;5.65;;;7.90;99.90;;;;;;4949973;28;20047;-66
2023/05/01 04:31:30;;;;;;;12.95;5.63;;;7.90;99.90;;;;;;4947558;28;21129;-65
2023/05/01 04:33:55;;;;;;;9.88;5.13;;;7.90;99.90;;;;;;4933670;28;20043;-65
2023/05/01 04:36:21;;;;;;;12.80;5.25;;;7.90;99.90;;;;;;4951568;28;20042;-65
2023/05/01 04:38:48;;;;;;;11.18;6.03;;;7.90;99.90;;;;;;4924998;28;20073;-65
2023/05/01 04:41:13;;;;;;;11.27;6.03;;;7.80;99.90;;;;;;4936332;28;20042;-65
2023/05/01 04:43:39;;;;;;;9.95;6.40;;;7.90;99.90;;;;;;4943486;28;21238;-65
2023/05/01 04:46:05;;;;;;;10.02;5.80;;;7.80;99.90;;;;;;4931466;28;20049;-65
2023/05/01 04:48:30;;;;;;;11.65;5.95;;;7.80;99.90;;;;;;4937505;28;20050;-65
2023/05/01 04:50:57;;;;;;;11.13;6.18;;;7.90;99.90;;;;;;4956630;28;20038;-65
2023/05/01 04:53:22;;;;;;;11.52;6.22;;;7.90;99.90;;;;;;4934575;28;20057;-65
2023/05/01 04:55:49;;;;;;;12.35;6.68;;;7.90;99.90;;;;;;4937933;28;20050;-65
2023/05/01 04:58:15;;;;;;;13.80;7.00;;;7.90;99.90;;;;;;4950674;28;20463;-65
2023/05/01 05:00:40;;;;;;;13.10;6.88;;;7.90;99.90;;;;;;4939577;28;20051;-65
2023/05/01 05:03:06;;;;;;;11.77;6.35;;;8.00;99.90;;;;;;4919126;28;20054;-65
2023/05/01 05:05:32;;;;;;;11.95;6.45;;;8.00;99.90;;;;;;4939234;28;20485;-65
2023/05/01 05:07:58;;;;;;;10.80;6.55;;;8.10;99.90;;;;;;4950524;28;20412;-65
2023/05/01 05:10:24;;;;;;;13.32;6.45;;;8.00;99.90;;;;;;4938239;28;20043;-65
2023/05/01 05:12:50;;;;;;;9.48;6.28;;;8.10;99.90;;;;;;4924523;28;26775;-65
2023/05/01 05:15:15;;;;;;;12.45;6.32;;;8.20;99.90;;;;;;4951049;28;20046;-65
2023/05/01 05:17:41;;;;;;;14.70;6.60;;;8.20;99.90;;;;;;4948603;28;20050;-65
2023/05/01 05:20:07;;;;;;;11.02;6.68;;;8.30;99.90;;;;;;4950786;28;20042;-65
2023/05/01 05:22:36;;;;;;;12.80;6.53;;;8.30;99.90;;;;;;4951159;28;20043;-65
2023/05/01 05:25:03;;;;;;;12.27;6.85;;;8.40;99.90;;;;;;4948531;28;20057;-65
2023/05/01 05:27:35;;;;;;;12.20;6.63;;;8.40;99.90;;;;;;4948537;28;20573;-65
2023/05/01 05:30:01;;;;;;;11.38;6.55;;;8.50;99.90;;;;;;4968338;28;20046;-65
2023/05/01 05:32:28;;;;;;;14.25;6.15;;;8.50;99.90;;;;;;4934474;28;20105;-65
2023/05/01 05:34:54;;;;;;;12.15;6.53;;;8.60;99.90;;;;;;4947853;28;20145;-67
2023/05/01 05:37:19;;;;;;;13.60;6.75;;;8.60;99.90;;;;;;4949404;28;20046;-65
2023/05/01 05:39:45;;;;;;;30.13;6.55;;;8.60;99.90;;;;;;4951003;28;20058;-65
2023/05/01 05:42:11;;;;;;;12.80;6.82;;;8.70;99.90;;;;;;4948685;28;20038;-65
2023/05/01 05:44:38;;;;;;;12.88;6.63;;;8.80;99.90;;;;;;4944512;28;20054;-65
2023/05/01 05:47:03;;;;;;;12.95;6.15;;;8.80;99.90;;;;;;4943067;28;20057;-65
2023/05/01 05:49:29;;;;;;;11.93;6.53;;;8.80;99.90;;;;;;4945496;28;20405;-65
2023/05/01 05:51:55;;;;;;;11.27;6.43;;;8.90;99.90;;;;;;4928114;28;20927;-65
2023/05/01 05:54:21;;;;;;;12.07;6.55;;;8.90;99.90;;;;;;4919690;28;20480;-65
2023/05/01 05:56:46;;;;;;;12.00;6.35;;;9.00;99.90;;;;;;4948770;28;20055;-66
2023/05/01 05:59:12;;;;;;;17.05;7.30;;;8.90;99.90;;;;;;4945296;28;20046;-65
2023/05/01 06:01:39;;;;;;;13.02;7.07;;;9.00;99.90;;;;;;4950170;28;20165;-65
2023/05/01 06:04:05;;;;;;;11.90;6.20;;;9.00;99.90;;;;;;4946666;28;20110;-65
2023/05/01 06:06:32;;;;;;;9.23;5.72;;;9.10;99.90;;;;;;4939291;28;20051;-65
2023/05/01 06:08:57;;;;;;;11.55;6.15;;;9.10;99.90;;;;;;4948737;28;20062;-65
2023/05/01 06:11:23;;;;;;;11.65;6.75;;;9.10;99.90;;;;;;4940755;28;20074;-65
2023/05/01 06:13:49;;;;;;;12.02;6.35;;;9.10;99.90;;;;;;4943074;28;20076;-65
2023/05/01 06:16:15;;;;;;;15.00;6.60;;;9.20;99.90;;;;;;4926678;28;20050;-65
2023/05/01 06:18:41;;;;;;;13.25;7.03;;;9.30;99.90;;;;;;4949157;28;20450;-65
2023/05/01 06:21:07;;;;;;;12.50;6.93;;;9.30;99.90;;;;;;4939430;28;20126;-65
2023/05/01 06:23:33;;;;;;;15.52;6.90;;;9.40;99.90;;;;;;4948266;28;20058;-65
2023/05/01 06:25:59;;;;;;;14.93;6.72;;;9.40;99.90;;;;;;4935476;28;20042;-65
2023/05/01 06:28:24;;;;;;;11.68;7.00;;;9.50;99.90;;;;;;4947892;28;20517;-65
2023/05/01 06:30:50;;;;;;;14.35;6.65;;;9.50;99.90;;;;;;4949507;28;20101;-65
2023/05/01 06:33:16;;;;;;;13.10;6.50;;;9.60;99.90;;;;;;4946716;28;20054;-65
2023/05/01 06:35:41;;;;;;;13.65;6.88;;;9.70;99.90;;;;;;4951307;28;20054;-65
2023/05/01 06:38:07;;;;;;;12.90;6.63;;;9.80;99.90;;;;;;4939162;28;20074;-65
2023/05/01 06:40:34;;;;;;;15.40;6.80;;;9.80;99.90;;;;;;4950519;28;20069;-65
2023/05/01 06:43:01;;;;;;;14.80;6.70;;;9.90;99.90;;;;;;4946929;28;20132;-65
2023/05/01 06:45:27;;;;;;;9.98;6.30;;;10.00;99.90;;;;;;4952748;28;20098;-65
2023/05/01 06:47:53;;;;;;;10.63;6.80;;;10.10;99.90;;;;;;4948425;28;20402;-65
2023/05/01 06:50:18;;;;;;;16.70;8.00;;;10.10;99.90;;;;;;4945411;28;20042;-65
2023/05/01 06:52:44;;;;;;;12.35;6.63;;;10.20;99.90;;;;;;4918172;28;20074;-65
2023/05/01 06:55:11;;;;;;;11.07;6.60;;;10.30;99.90;;;;;;4937721;28;20038;-65
2023/05/01 06:57:38;;;;;;;13.75;6.40;;;10.40;99.90;;;;;;4947593;28;20502;-65
2023/05/01 07:00:05;;;;;;;16.60;6.47;;;10.50;99.90;;;;;;4935538;28;20057;-65
2023/05/01 07:02:31;;;;;;;18.75;7.22;;;10.60;99.90;;;;;;4936347;28;20081;-65
2023/05/01 07:04:56;;;;;;;14.75;6.82;;;10.70;99.90;;;;;;4941422;28;20042;-65
2023/05/01 07:07:23;;;;;;;11.65;6.55;;;10.70;99.90;;;;;;4944032;28;20042;-65
2023/05/01 07:09:48;;;;;;;15.20;6.85;;;10.80;99.90;;;;;;4940238;28;20113;-65
2023/05/01 07:12:14;;;;;;;15.82;6.60;;;10.90;99.90;;;;;;4915811;28;20185;-65
2023/05/01 07:14:40;;;;;;;18.80;6.97;;;11.00;99.90;;;;;;4933272;28;20263;-65
2023/05/01 07:17:08;;;;;;;15.35;7.40;;;11.00;99.90;;;;;;4925518;28;20042;-65
2023/05/01 07:19:34;;;;;;;11.45;6.88;;;11.10;99.90;;;;;;4934461;28;20045;-65
2023/05/01 07:21:59;;;;;;;13.20;7.25;;;11.10;99.90;;;;;;4943599;28;20140;-65
2023/05/01 07:24:25;;;;;;;17.48;7.28;;;11.20;99.90;;;;;;4925414;28;20051;-65
2023/05/01 07:26:51;;;;;;;14.35;6.93;;;11.20;99.90;;;;;;4938171;28;20117;-65
2023/05/01 07:29:17;;;;;;;11.60;6.35;;;11.30;99.90;;;;;;4934551;28;20047;-65
2023/05/01 07:31:44;;;;;;;11.73;6.55;;;11.40;99.90;;;;;;4953883;28;20125;-66
2023/05/01 07:34:10;;;;;;;14.50;6.93;;;11.50;99.90;;;;;;4954815;28;20046;-65
2023/05/01 07:36:37;;;;;;;12.57;6.18;;;11.60;99.90;;;;;;4937868;28;20042;-66
2023/05/01 07:39:03;;;;;;;16.38;6.72;;;11.70;99.90;;;;;;4941989;28;20057;-66
2023/05/01 07:41:29;;;;;;;17.20;6.72;;;11.80;99.90;;;;;;4959950;28;20061;-66
2023/05/01 07:43:58;;;;;;;14.00;6.70;;;11.90;99.90;;;;;;4953166;28;20051;-66
2023/05/01 07:46:24;;;;;;;9.52;5.88;;;12.10;99.90;;;;;;4942643;28;20046;-66
2023/05/01 07:48:50;;;;;;;16.55;6.22;;;12.20;99.90;;;;;;4942935;28;20061;-66
2023/05/01 07:51:17;;;;;;;12.23;6.18;;;12.30;99.90;;;;;;4951079;28;20042;-66
2023/05/01 07:53:43;;;;;;;13.70;5.85;;;12.40;99.80;;;;;;4962641;28;20046;-66
2023/05/01 07:56:09;;;;;;;9.25;5.90;;;12.50;99.70;;;;;;4939887;28;20444;-66
2023/05/01 07:58:35;;;;;;;17.75;6.13;;;12.60;99.90;;;;;;4940775;28;20583;-66
2023/05/01 08:01:02;;;;;;;9.88;5.40;;;12.80;99.90;;;;;;4947650;28;20052;-66
2023/05/01 08:03:31;;;;;;;10.10;5.35;;;12.90;99.70;;;;;;4950871;28;20113;-66
2023/05/01 08:05:57;;;;;;;10.48;4.90;;;13.00;99.00;;;;;;4936671;28;20373;-66
2023/05/01 08:08:23;;;;;;;15.57;5.32;;;13.20;99.10;;;;;;4927651;28;20064;-66
2023/05/01 08:10:50;;;;;;;10.88;5.00;;;13.30;98.80;;;;;;4942428;28;20216;-66
2023/05/01 08:13:16;;;;;;;15.50;5.45;;;13.40;98.40;;;;;;4959276;28;20564;-66
2023/05/01 08:15:42;;;;;;;11.00;4.55;;;13.50;98.20;;;;;;4944507;28;20125;-66
2023/05/01 08:18:08;;;;;;;9.75;4.40;;;13.60;98.30;;;;;;4954703;28;20050;-66
2023/05/01 08:20:37;;;;;;;12.43;4.72;;;13.70;98.00;;;;;;4954164;28;20052;-66
2023/05/01 08:23:03;;;;;;;12.38;4.78;;;13.80;97.60;;;;;;4960921;28;20541;-66
2023/05/01 08:25:30;;;;;;;10.88;4.43;;;14.00;97.70;;;;;;4946270;28;20065;-66
2023/05/01 08:27:56;;;;;;;11.68;4.63;;;14.10;97.40;;;;;;4928732;28;20101;-66
2023/05/01 08:30:22;;;;;;;9.18;4.32;;;14.20;96.60;;;;;;4954893;28;20709;-66
2023/05/01 08:32:48;;;;;;;9.75;3.80;;;14.30;96.10;;;;;;4953630;28;20042;-66
2023/05/01 08:35:13;;;;;;;7.32;4.20;;;14.50;95.10;;;;;;4945844;28;20520;-66
2023/05/01 08:37:39;;;;;;;8.05;3.85;;;14.60;94.50;;;;;;4942055;28;20047;-66
2023/05/01 08:40:07;;;;;;;7.07;4.05;;;14.70;94.40;;;;;;4950978;28;20626;-66
2023/05/01 08:42:36;;;;;;;6.97;2.90;;;14.80;93.30;;;;;;4948062;28;20057;-66
2023/05/01 08:45:03;;;;;;;8.00;3.95;;;14.90;92.40;;;;;;4949291;28;20161;-66
2023/05/01 08:47:29;;;;;;;9.75;3.63;;;15.10;92.40;;;;;;4950905;28;20050;-66
2023/05/01 08:49:57;;;;;;;9.55;3.80;;;15.30;92.40;;;;;;4930055;28;20051;-66
2023/05/01 08:52:26;;;;;;;7.95;3.80;;;15.40;91.40;;;;;;4960717;28;20066;-66
2023/05/01 08:54:55;;;;;;;9.68;4.00;;;15.50;91.10;;;;;;4961026;28;20050;-66
2023/05/01 08:57:22;;;;;;;8.82;4.22;;;15.60;91.30;;;;;;4954665;28;20189;-66
2023/05/01 08:59:57;;;;;;;9.63;4.35;;;15.70;90.60;;;;;;5055092;27;20590;-66
2023/05/01 09:02:24;;;;;;;7.60;4.30;;;15.80;90.70;;;;;;5050167;28;20044;-66
2023/05/01 09:04:51;;;;;;;11.52;4.60;;;15.90;90.20;;;;;;5050579;28;20075;-66
2023/05/01 09:07:16;;;;;;;10.40;4.47;;;15.90;89.80;;;;;;5025064;28;20151;-66
2023/05/01 09:09:42;;;;;;;9.63;4.50;;;16.00;90.00;;;;;;5037953;28;20120;-66
2023/05/01 09:12:17;;;;;;;8.98;3.88;;;16.10;89.40;;;;;;5045307;28;20570;-66
2023/05/01 09:14:44;;;;;;;7.30;3.90;;;16.10;88.30;;;;;;5046420;28;20475;-66
2023/05/01 09:17:11;;;;;;;10.75;4.63;;;16.30;88.00;;;;;;5028615;28;20045;-66
2023/05/01 09:19:37;;;;;;;10.75;4.53;;;16.40;88.40;;;;;;5045261;28;20128;-66
2023/05/01 09:22:02;;;;;;;15.25;4.20;;;16.50;86.30;;;;;;5044178;28;20139;-66
2023/05/01 09:24:28;;;;;;;7.50;3.80;;;16.50;85.50;;;;;;5027375;28;20036;-66
2023/05/01 09:26:56;;;;;;;9.98;3.47;;;16.60;86.20;;;;;;5046749;28;20040;-66
2023/05/01 09:29:46;;;;;;;7.07;4.05;;;16.70;85.70;;;;;;5066789;28;20056;-66
2023/05/01 09:32:38;;;;;;;10.63;4.10;;;16.70;86.00;;;;;;5031439;28;20049;-66
2023/05/01 09:35:14;;;;;;;8.82;3.80;;;16.90;87.80;;;;;;5013211;28;20518;-66
2023/05/01 09:37:40;;;;;;;8.63;4.00;;;17.00;86.80;;;;;;5031175;28;20044;-66
2023/05/01 09:40:07;;;;;;;8.50;3.92;;;17.20;88.10;;;;;;5024150;28;20053;-66
2023/05/01 09:42:36;;;;;;;8.65;3.80;;;17.30;87.50;;;;;;5035520;28;20044;-66
2023/05/01 09:45:04;;;;;;;6.35;3.42;;;17.40;85.40;;;;;;5036661;28;20410;-66
2023/05/01 09:47:30;;;;;;;9.38;3.00;;;17.50;84.00;;;;;;5012132;28;20044;-66
2023/05/01 09:49:58;;;;;;;5.93;3.28;;;17.50;82.80;;;;;;5032578;28;20052;-66
2023/05/01 09:52:28;;;;;;;8.30;3.78;;;17.60;82.30;;;;;;5010867;28;20124;-66
2023/05/01 09:55:15;;;;;;;8.23;3.47;;;17.70;79.80;;;;;;5009068;28;20045;-66
2023/05/01 09:57:41;;;;;;;7.68;3.20;;;17.80;81.00;;;;;;5009692;28;20045;-66
2023/05/01 10:00:14;;;;;;;6.03;3.42;;;17.90;82.20;;;;;;4993115;28;20137;-66
2023/05/01 10:02:41;;;;;;;8.38;3.83;;;18.00;79.00;;;;;;5007280;28;20038;-66
2023/05/01 10:05:09;;;;;;;6.15;3.10;;;18.10;79.00;;;;;;4978377;28;20373;-66
2023/05/01 10:07:34;;;;;;;10.90;3.70;;;18.20;80.20;;;;;;4995668;28;20041;-66
2023/05/01 10:10:20;;;;;;;6.40;3.40;;;18.40;80.30;;;;;;5004479;28;20037;-66
2023/05/01 10:12:47;;;;;;;8.23;3.72;;;18.50;77.30;;;;;;5000196;28;20037;-66
2023/05/01 10:15:13;;;;;;;7.00;3.50;;;18.60;78.60;;;;;;4966163;28;20745;-66
2023/05/01 10:17:40;;;;;;;7.07;3.30;;;18.70;79.10;;;;;;4995657;28;20469;-67
2023/05/01 10:20:08;;;;;;;7.70;3.13;;;18.80;77.50;;;;;;4997279;28;20041;-66
2023/05/01 10:22:33;;;;;;;7.95;3.75;;;18.80;76.30;;;;;;4979581;28;20046;-66
2023/05/01 10:25:00;;;;;;;7.20;3.80;;;18.90;77.20;;;;;;4995726;28;20562;-66
2023/05/01 10:27:26;;;;;;;7.00;3.35;;;19.00;78.00;;;;;;4993313;28;20119;-66
2023/05/01 10:29:53;;;;;;;6.07;3.53;;;19.20;77.40;;;;;;4980050;28;20041;-66
2023/05/01 10:32:20;;;;;;;7.90;3.30;;;19.30;77.60;;;;;;4994668;28;20427;-66
2023/05/01 10:34:56;;;;;;;5.78;3.00;;;19.50;77.30;;;;;;4993894;28;20042;-66
2023/05/01 10:37:28;;;;;;;6.00;2.40;;;19.60;77.80;;;;;;4990882;28;20042;-66
2023/05/01 10:39:54;;;;;;;6.23;2.90;;;19.70;76.50;;;;;;4996359;28;20054;-66
2023/05/01 10:42:19;;;;;;;7.05;2.92;;;19.70;74.60;;;;;;4973012;28;20040;-67
2023/05/01 10:44:48;;;;;;;7.53;2.97;;;19.80;74.00;;;;;;4992815;28;20046;-66
2023/05/01 10:47:23;;;;;;;8.20;3.10;;;19.90;74.60;;;;;;4993978;28;20095;-66
2023/05/01 10:50:10;;;;;;;7.90;3.83;;;20.00;75.20;;;;;;4987788;28;20056;-66
2023/05/01 10:53:10;;;;;;;8.63;3.53;;;20.00;74.30;;;;;;5001714;28;20046;-66
2023/05/01 10:55:38;;;;;;;6.88;2.80;;;20.00;73.70;;;;;;4995290;28;20046;-66
2023/05/01 10:58:04;;;;;;;5.47;3.13;;;20.00;74.10;;;;;;4996521;28;20520;-66
2023/05/01 11:00:31;;;;;;;6.93;3.28;;;20.10;72.40;;;;;;4997180;28;20035;-66
2023/05/01 11:03:21;;;;;;;7.10;2.65;;;20.10;72.50;;;;;;4960610;28;20642;-66
2023/05/01 11:06:00;;;;;;;6.43;2.78;;;20.20;73.40;;;;;;4991316;28;20041;-66
2023/05/01 11:08:33;;;;;;;6.10;2.85;;;20.30;73.60;;;;;;4993186;28;20161;-66
2023/05/01 11:11:19;;;;;;;4.70;2.20;;;20.40;74.30;;;;;;4981131;28;20069;-66
2023/05/01 11:14:05;;;;;;;2.92;2.17;;;20.70;74.30;;;;;;4989519;28;20057;-66
2023/05/01 11:16:36;;;;;;;3.95;2.28;;;20.80;72.80;;;;;;4991173;28;20052;-66
2023/05/01 11:19:03;;;;;;;4.55;2.30;;;20.90;72.40;;;;;;4992447;28;20437;-66
2023/05/01 11:21:32;;;;;;;7.63;2.70;;;21.00;71.80;;;;;;4990168;28;20049;-67
2023/05/01 11:23:59;;;;;;;7.13;2.75;;;21.10;71.80;;;;;;4985949;28;20393;-66
2023/05/01 11:26:26;;;;;;;3.17;2.00;;;21.10;70.50;;;;;;4990778;28;20185;-66
2023/05/01 11:28:55;;;;;;;4.78;1.80;;;21.20;70.40;;;;;;4985366;28;20505;-67
2023/05/01 11:31:21;;;;;;;6.60;1.95;;;21.20;68.30;;;;;;4997096;28;20152;-66
2023/05/01 11:33:47;;;;;;;2.70;1.63;;;21.20;67.10;;;;;;4980125;28;20390;-67
2023/05/01 11:36:13;;;;;;;3.25;1.75;;;21.10;66.30;;;;;;4986473;28;20054;-67
2023/05/01 11:38:55;;;;;;;3.65;1.83;;;21.30;68.70;;;;;;4989220;28;20558;-67
2023/05/01 11:41:27;;;;;;;3.65;1.67;;;21.40;67.10;;;;;;4972835;28;20039;-67
2023/05/01 11:43:58;;;;;;;2.15;1.30;;;21.50;67.10;;;;;;4975879;28;20537;-67
2023/05/01 11:46:31;;;;;;;2.88;1.50;;;21.60;66.30;;;;;;4991264;28;20046;-67
2023/05/01 11:49:00;;;;;;;4.20;1.70;;;21.70;67.20;;;;;;4974191;28;20066;-67
2023/05/01 11:51:26;;;;;;;4.15;1.70;;;21.70;66.00;;;;;;4986193;28;20045;-67
2023/05/01 11:54:03;;;;;;;3.88;1.70;;;21.60;65.60;;;;;;4960015;28;20049;-67
2023/05/01 11:56:30;;;;;;;2.15;1.50;;;21.60;65.20;;;;;;4988418;28;20401;-66
2023/05/01 11:58:57;;;;;;;5.60;2.25;;;21.40;66.20;;;;;;4968980;28;20061;-67
2023/05/01 12:01:37;;;;;;;5.60;2.75;;;21.30;66.60;;;;;;5004653;28;20376;-67
2023/05/01 12:04:04;;;;;;;4.38;2.35;;;21.30;66.60;;;;;;4995749;28;20053;-66
2023/05/01 12:06:44;;;;;;;6.20;2.72;;;21.30;66.10;;;;;;4994529;28;20044;-66
2023/05/01 12:09:15;;;;;;;4.22;2.10;;;21.20;65.50;;;;;;4999872;28;20046;-66
2023/05/01 12:11:41;;;;;;;3.45;2.00;;;21.20;67.00;;;;;;4980865;28;20049;-66
2023/05/01 12:14:08;;;;;;;5.35;1.90;;;21.20;66.40;;;;;;4996291;28;20077;-67
2023/05/01 12:16:34;;;;;;;6.93;1.85;;;21.20;65.80;;;;;;4992847;28;20049;-67
2023/05/01 12:19:01;;;;;;;2.97;1.73;;;21.20;65.40;;;;;;4987654;28;20057;-66
2023/05/01 12:21:27;;;;;;;5.53;2.20;;;21.30;64.80;;;;;;4989630;28;20156;-67
2023/05/01 12:23:53;;;;;;;3.80;1.90;;;21.40;65.00;;;;;;4995206;28;20497;-66
2023/05/01 12:26:26;;;;;;;4.55;1.70;;;21.50;64.80;;;;;;4994470;28;20047;-67
2023/05/01 12:28:57;;;;;;;5.18;1.90;;;21.50;64.10;;;;;;4995474;28;20258;-66
2023/05/01 12:31:24;;;;;;;3.78;2.25;;;21.50;64.40;;;;;;4967060;28;20391;-66
2023/05/01 12:33:53;;;;;;;4.95;2.17;;;21.50;64.70;;;;;;4998104;28;20048;-66
2023/05/01 12:36:24;;;;;;;3.85;2.10;;;21.50;65.50;;;;;;4999245;28;20144;-66
2023/05/01 12:39:00;;;;;;;6.28;2.28;;;21.50;64.90;;;;;;4995654;28;20058;-66
2023/05/01 12:41:47;;;;;;;6.60;2.50;;;21.50;64.10;;;;;;4979046;28;20160;-66
2023/05/01 12:44:22;;;;;;;3.72;2.25;;;21.50;65.00;;;;;;4999430;28;20084;-66
2023/05/01 12:46:54;;;;;;;4.28;2.10;;;21.50;65.30;;;;;;4962698;28;20080;-66
2023/05/01 12:49:21;;;;;;;4.78;1.85;;;21.40;64.80;;;;;;4996538;28;20100;-66
2023/05/01 12:51:51;;;;;;;4.45;1.88;;;21.40;65.40;;;;;;4982415;28;20061;-66